sensor_id;sensor_type;location;lat;lon;timestamp;pressure;altitude;pressure_sealevel;temperature;humidity
21742;BME280;11033;47.490;11.116;2023-02-02T00:01:15;93621.34;;;2.44;73.41
21742;BME280;11033;47.490;11.116;2023-02-02T00:03:41;93634.09;;;2.47;72.19
21742;BME280;11033;47.490;11.116;2023-02-02T00:06:06;93639.72;;;2.52;72.78
21742;BME280;11033;47.490;11.116;2023-02-02T00:08:31;93641.91;;;2.47;72.83
21742;BME280;11033;47.490;11.116;2023-02-02T00:10:57;93640.13;;;2.48;72.12
21742;BME280;11033;47.490;11.116;2023-02-02T00:13:23;93646.00;;;2.50;71.84
21742;BME280;11033;47.490;11.116;2023-02-02T00:15:48;93646.56;;;2.53;70.74
21742;BME280;11033;47.490;11.116;2023-02-02T00:18:13;93649.88;;;2.55;70.50
21742;BME280;11033;47.490;11.116;2023-02-02T00:20:38;93650.00;;;2.54;70.53
21742;BME280;11033;47.490;11.116;2023-02-02T00:23:03;93657.78;;;2.54;70.67
21742;BME280;11033;47.490;11.116;2023-02-02T00:25:29;93641.72;;;2.60;70.72
21742;BME280;11033;47.490;11.116;2023-02-02T00:27:54;93663.34;;;2.61;70.28
21742;BME280;11033;47.490;11.116;2023-02-02T00:30:19;93665.94;;;2.61;70.40
21742;BME280;11033;47.490;11.116;2023-02-02T00:32:44;93667.72;;;2.60;70.80
21742;BME280;11033;47.490;11.116;2023-02-02T00:35:12;93655.53;;;2.61;69.47
21742;BME280;11033;47.490;11.116;2023-02-02T00:37:37;93657.88;;;2.64;70.40
21742;BME280;11033;47.490;11.116;2023-02-02T00:40:03;93650.75;;;2.66;69.84
21742;BME280;11033;47.490;11.116;2023-02-02T00:42:28;93643.09;;;2.64;71.05
21742;BME280;11033;47.490;11.116;2023-02-02T00:44:53;93649.25;;;2.63;71.33
21742;BME280;11033;47.490;11.116;2023-02-02T00:47:37;93648.66;;;2.60;71.09
21742;BME280;11033;47.490;11.116;2023-02-02T00:50:02;93653.97;;;2.58;71.82
21742;BME280;11033;47.490;11.116;2023-02-02T00:52:35;93658.97;;;2.61;72.31
21742;BME280;11033;47.490;11.116;2023-02-02T00:55:00;93654.81;;;2.59;71.33
21742;BME280;11033;47.490;11.116;2023-02-02T00:57:25;93644.66;;;2.55;71.82
21742;BME280;11033;47.490;11.116;2023-02-02T00:59:51;93649.44;;;2.50;73.01
21742;BME280;11033;47.490;11.116;2023-02-02T01:02:16;93644.94;;;2.52;72.77
21742;BME280;11033;47.490;11.116;2023-02-02T01:04:41;93650.13;;;2.52;72.71
21742;BME280;11033;47.490;11.116;2023-02-02T01:07:06;93653.94;;;2.48;73.58
21742;BME280;11033;47.490;11.116;2023-02-02T01:09:31;93638.09;;;2.51;72.77
21742;BME280;11033;47.490;11.116;2023-02-02T01:11:56;93646.31;;;2.57;72.86
21742;BME280;11033;47.490;11.116;2023-02-02T01:14:22;93646.44;;;2.55;73.69
21742;BME280;11033;47.490;11.116;2023-02-02T01:16:47;93651.06;;;2.51;73.39
21742;BME280;11033;47.490;11.116;2023-02-02T01:19:12;93641.63;;;2.50;72.95
21742;BME280;11033;47.490;11.116;2023-02-02T01:21:38;93643.53;;;2.48;73.88
21742;BME280;11033;47.490;11.116;2023-02-02T01:24:03;93647.78;;;2.49;74.29
21742;BME280;11033;47.490;11.116;2023-02-02T01:26:28;93636.94;;;2.44;74.49
21742;BME280;11033;47.490;11.116;2023-02-02T01:28:53;93646.66;;;2.42;74.50
21742;BME280;11033;47.490;11.116;2023-02-02T01:31:19;93642.84;;;2.46;74.05
21742;BME280;11033;47.490;11.116;2023-02-02T01:33:45;93645.31;;;2.48;74.28
21742;BME280;11033;47.490;11.116;2023-02-02T01:36:12;93645.97;;;2.40;74.83
21742;BME280;11033;47.490;11.116;2023-02-02T01:38:38;93645.69;;;2.43;74.42
21742;BME280;11033;47.490;11.116;2023-02-02T01:41:04;93642.41;;;2.41;75.58
21742;BME280;11033;47.490;11.116;2023-02-02T01:48:39;93646.41;;;2.45;75.43
21742;BME280;11033;47.490;11.116;2023-02-02T01:51:06;93653.31;;;2.35;76.25
21742;BME280;11033;47.490;11.116;2023-02-02T01:53:33;93657.56;;;2.36;76.97
21742;BME280;11033;47.490;11.116;2023-02-02T01:55:58;93656.34;;;2.40;75.81
21742;BME280;11033;47.490;11.116;2023-02-02T01:58:26;93648.63;;;2.29;77.12
21742;BME280;11033;47.490;11.116;2023-02-02T02:00:52;93646.72;;;2.31;76.85
21742;BME280;11033;47.490;11.116;2023-02-02T02:03:20;93629.25;;;2.33;76.84
21742;BME280;11033;47.490;11.116;2023-02-02T02:05:52;93621.31;;;2.35;77.14
21742;BME280;11033;47.490;11.116;2023-02-02T02:08:26;93615.28;;;2.34;76.56
21742;BME280;11033;47.490;11.116;2023-02-02T02:10:52;93631.13;;;2.31;77.12
21742;BME280;11033;47.490;11.116;2023-02-02T02:13:17;93621.44;;;2.33;76.34
21742;BME280;11033;47.490;11.116;2023-02-02T02:15:46;93622.66;;;2.29;77.04
21742;BME280;11033;47.490;11.116;2023-02-02T02:18:35;93626.47;;;2.25;77.45
21742;BME280;11033;47.490;11.116;2023-02-02T02:21:19;93627.59;;;2.32;76.16
21742;BME280;11033;47.490;11.116;2023-02-02T02:24:14;93614.16;;;2.27;76.26
21742;BME280;11033;47.490;11.116;2023-02-02T02:27:13;93626.19;;;2.28;76.39
21742;BME280;11033;47.490;11.116;2023-02-02T02:30:04;93613.34;;;2.27;76.12
21742;BME280;11033;47.490;11.116;2023-02-02T02:35:28;93612.25;;;2.29;76.32
21742;BME280;11033;47.490;11.116;2023-02-02T02:38:13;93608.19;;;2.36;75.88
21742;BME280;11033;47.490;11.116;2023-02-02T02:40:41;93595.00;;;2.28;75.09
21742;BME280;11033;47.490;11.116;2023-02-02T02:43:20;93605.16;;;2.31;75.20
21742;BME280;11033;47.490;11.116;2023-02-02T02:45:48;93597.78;;;2.36;75.51
21742;BME280;11033;47.490;11.116;2023-02-02T02:48:13;93581.06;;;2.29;75.13
21742;BME280;11033;47.490;11.116;2023-02-02T02:50:39;93606.53;;;2.35;74.87
21742;BME280;11033;47.490;11.116;2023-02-02T02:53:06;93604.13;;;2.43;74.70
21742;BME280;11033;47.490;11.116;2023-02-02T02:55:38;93596.31;;;2.43;73.57
21742;BME280;11033;47.490;11.116;2023-02-02T02:58:48;93605.06;;;2.42;74.64
21742;BME280;11033;47.490;11.116;2023-02-02T03:01:06;93598.66;;;2.46;74.13
21742;BME280;11033;47.490;11.116;2023-02-02T03:08:38;93615.19;;;2.45;73.85
21742;BME280;11033;47.490;11.116;2023-02-02T03:11:04;93601.13;;;2.48;74.34
21742;BME280;11033;47.490;11.116;2023-02-02T03:13:31;93614.00;;;2.49;73.08
21742;BME280;11033;47.490;11.116;2023-02-02T03:15:56;93604.41;;;2.50;73.41
21742;BME280;11033;47.490;11.116;2023-02-02T03:18:22;93607.16;;;2.48;74.14
21742;BME280;11033;47.490;11.116;2023-02-02T03:20:48;93610.69;;;2.47;74.64
21742;BME280;11033;47.490;11.116;2023-02-02T03:23:14;93618.06;;;2.42;75.08
21742;BME280;11033;47.490;11.116;2023-02-02T03:25:39;93609.88;;;2.47;74.32
21742;BME280;11033;47.490;11.116;2023-02-02T03:28:05;93605.50;;;2.47;74.58
21742;BME280;11033;47.490;11.116;2023-02-02T03:30:30;93611.38;;;2.49;74.23
21742;BME280;11033;47.490;11.116;2023-02-02T03:32:56;93605.50;;;2.47;73.46
21742;BME280;11033;47.490;11.116;2023-02-02T03:35:21;93603.84;;;2.46;73.64
21742;BME280;11033;47.490;11.116;2023-02-02T03:37:46;93617.81;;;2.45;73.77
21742;BME280;11033;47.490;11.116;2023-02-02T03:40:12;93624.66;;;2.46;74.20
21742;BME280;11033;47.490;11.116;2023-02-02T03:42:38;93615.91;;;2.47;73.36
21742;BME280;11033;47.490;11.116;2023-02-02T03:45:03;93608.22;;;2.46;72.79
21742;BME280;11033;47.490;11.116;2023-02-02T03:47:28;93618.88;;;2.43;73.76
21742;BME280;11033;47.490;11.116;2023-02-02T03:49:54;93618.75;;;2.44;73.28
21742;BME280;11033;47.490;11.116;2023-02-02T03:52:19;93617.81;;;2.45;72.90
21742;BME280;11033;47.490;11.116;2023-02-02T03:54:44;93603.84;;;2.46;72.79
21742;BME280;11033;47.490;11.116;2023-02-02T03:57:09;93608.09;;;2.47;72.23
21742;BME280;11033;47.490;11.116;2023-02-02T03:59:34;93595.94;;;2.48;72.76
21742;BME280;11033;47.490;11.116;2023-02-02T04:01:59;93609.34;;;2.53;71.29
21742;BME280;11033;47.490;11.116;2023-02-02T04:04:25;93612.91;;;2.52;71.65
21742;BME280;11033;47.490;11.116;2023-02-02T04:06:50;93612.78;;;2.53;72.04
21742;BME280;11033;47.490;11.116;2023-02-02T04:09:15;93625.66;;;2.55;71.73
21742;BME280;11033;47.490;11.116;2023-02-02T04:11:40;93625.22;;;2.50;73.25
21742;BME280;11033;47.490;11.116;2023-02-02T04:14:05;93624.81;;;2.54;72.91
21742;BME280;11033;47.490;11.116;2023-02-02T04:16:31;93627.69;;;2.51;72.57
21742;BME280;11033;47.490;11.116;2023-02-02T04:18:58;93625.91;;;2.52;73.42
21742;BME280;11033;47.490;11.116;2023-02-02T04:21:24;93621.13;;;2.57;72.66
21742;BME280;11033;47.490;11.116;2023-02-02T04:23:49;93617.03;;;2.54;72.00
21742;BME280;11033;47.490;11.116;2023-02-02T04:26:14;93625.78;;;2.53;72.26
21742;BME280;11033;47.490;11.116;2023-02-02T04:28:39;93631.53;;;2.57;72.49
21742;BME280;11033;47.490;11.116;2023-02-02T04:31:04;93626.47;;;2.55;73.51
21742;BME280;11033;47.490;11.116;2023-02-02T04:33:29;93637.94;;;2.53;73.66
21742;BME280;11033;47.490;11.116;2023-02-02T04:35:55;93635.34;;;2.53;73.22
21742;BME280;11033;47.490;11.116;2023-02-02T04:38:20;93637.81;;;2.54;73.85
21742;BME280;11033;47.490;11.116;2023-02-02T04:40:46;93632.31;;;2.48;74.99
21742;BME280;11033;47.490;11.116;2023-02-02T04:43:11;93633.28;;;2.47;74.84
21742;BME280;11033;47.490;11.116;2023-02-02T04:45:37;93629.84;;;2.46;74.86
21742;BME280;11033;47.490;11.116;2023-02-02T04:48:02;93635.47;;;2.51;74.59
21742;BME280;11033;47.490;11.116;2023-02-02T04:50:28;93633.28;;;2.47;74.62
21742;BME280;11033;47.490;11.116;2023-02-02T04:52:53;93631.22;;;2.50;74.42
21742;BME280;11033;47.490;11.116;2023-02-02T04:55:18;93638.34;;;2.48;75.00
21742;BME280;11033;47.490;11.116;2023-02-02T04:57:44;93638.09;;;2.51;75.01
21742;BME280;11033;47.490;11.116;2023-02-02T05:00:09;93639.72;;;2.52;75.24
21742;BME280;11033;47.490;11.116;2023-02-02T05:02:36;93641.63;;;2.50;74.81
21742;BME280;11033;47.490;11.116;2023-02-02T05:05:01;93650.69;;;2.56;74.62
21742;BME280;11033;47.490;11.116;2023-02-02T05:07:26;93648.47;;;2.51;74.52
21742;BME280;11033;47.490;11.116;2023-02-02T05:09:51;93646.06;;;2.60;74.78
21742;BME280;11033;47.490;11.116;2023-02-02T05:12:16;93639.22;;;2.59;74.58
21742;BME280;11033;47.490;11.116;2023-02-02T05:14:42;93638.38;;;2.58;74.21
21742;BME280;11033;47.490;11.116;2023-02-02T05:17:07;93642.13;;;2.65;74.36
21742;BME280;11033;47.490;11.116;2023-02-02T05:19:32;93639.66;;;2.64;73.66
21742;BME280;11033;47.490;11.116;2023-02-02T05:21:57;93641.31;;;2.65;74.68
21742;BME280;11033;47.490;11.116;2023-02-02T05:24:22;93645.56;;;2.66;73.94
21742;BME280;11033;47.490;11.116;2023-02-02T05:26:48;93641.44;;;2.63;74.25
21742;BME280;11033;47.490;11.116;2023-02-02T05:29:13;93638.47;;;2.68;74.53
21742;BME280;11033;47.490;11.116;2023-02-02T05:31:38;93639.84;;;2.72;74.22
21742;BME280;11033;47.490;11.116;2023-02-02T05:34:03;93646.81;;;2.71;74.34
21742;BME280;11033;47.490;11.116;2023-02-02T05:36:30;93639.84;;;2.72;73.59
21742;BME280;11033;47.490;11.116;2023-02-02T05:38:56;93640.28;;;2.77;73.89
21742;BME280;11033;47.490;11.116;2023-02-02T05:41:21;93642.88;;;2.77;74.01
21742;BME280;11033;47.490;11.116;2023-02-02T05:43:46;93630.00;;;2.75;74.10
21742;BME280;11033;47.490;11.116;2023-02-02T05:46:12;93630.00;;;2.75;73.10
21742;BME280;11033;47.490;11.116;2023-02-02T05:48:37;93620.41;;;2.76;73.29
21742;BME280;11033;47.490;11.116;2023-02-02T05:53:28;93612.78;;;2.84;72.22
21742;BME280;11033;47.490;11.116;2023-02-02T05:55:53;93631.41;;;2.89;71.84
21742;BME280;11033;47.490;11.116;2023-02-02T05:58:18;93605.13;;;2.92;71.55
21742;BME280;11033;47.490;11.116;2023-02-02T06:00:44;93605.69;;;2.96;71.75
21742;BME280;11033;47.490;11.116;2023-02-02T06:03:09;93602.25;;;2.95;71.53
21742;BME280;11033;47.490;11.116;2023-02-02T06:05:36;93602.97;;;2.97;71.59
21742;BME280;11033;47.490;11.116;2023-02-02T06:08:01;93614.06;;;2.99;71.78
21742;BME280;11033;47.490;11.116;2023-02-02T06:10:27;93605.28;;;3.00;71.13
21742;BME280;11033;47.490;11.116;2023-02-02T06:12:52;93599.00;;;3.03;70.72
21742;BME280;11033;47.490;11.116;2023-02-02T06:15:17;93611.75;;;3.06;70.74
21742;BME280;11033;47.490;11.116;2023-02-02T06:17:42;93616.81;;;3.07;70.10
21742;BME280;11033;47.490;11.116;2023-02-02T06:20:08;93628.88;;;3.08;70.75
21742;BME280;11033;47.490;11.116;2023-02-02T06:22:33;93623.53;;;3.10;70.80
21742;BME280;11033;47.490;11.116;2023-02-02T06:24:58;93629.56;;;3.10;70.42
21742;BME280;11033;47.490;11.116;2023-02-02T06:27:23;93629.28;;;3.13;70.78
21742;BME280;11033;47.490;11.116;2023-02-02T06:29:49;93634.78;;;3.20;69.37
21742;BME280;11033;47.490;11.116;2023-02-02T06:32:14;93632.03;;;3.22;70.23
21742;BME280;11033;47.490;11.116;2023-02-02T06:34:39;93633.00;;;3.21;69.24
21742;BME280;11033;47.490;11.116;2023-02-02T06:37:04;93646.31;;;3.27;69.50
21742;BME280;11033;47.490;11.116;2023-02-02T06:39:30;93649.06;;;3.26;69.57
21742;BME280;11033;47.490;11.116;2023-02-02T06:41:55;93640.72;;;3.32;69.42
21742;BME280;11033;47.490;11.116;2023-02-02T06:44:20;93659.06;;;3.30;69.40
21742;BME280;11033;47.490;11.116;2023-02-02T06:46:46;93657.56;;;3.28;70.08
21742;BME280;11033;47.490;11.116;2023-02-02T06:49:11;93658.88;;;3.22;71.07
21742;BME280;11033;47.490;11.116;2023-02-02T06:51:36;93655.72;;;3.18;72.23
21742;BME280;11033;47.490;11.116;2023-02-02T06:54:02;93643.00;;;3.15;72.69
21742;BME280;11033;47.490;11.116;2023-02-02T06:56:27;93664.91;;;3.13;73.32
21742;BME280;11033;47.490;11.116;2023-02-02T06:58:53;93659.13;;;3.09;73.56
21742;BME280;11033;47.490;11.116;2023-02-02T07:01:18;93674.88;;;3.08;74.48
21742;BME280;11033;47.490;11.116;2023-02-02T07:03:46;93682.56;;;3.09;73.73
21742;BME280;11033;47.490;11.116;2023-02-02T07:06:13;93679.38;;;3.06;74.28
21742;BME280;11033;47.490;11.116;2023-02-02T07:08:38;93682.13;;;3.04;75.11
21742;BME280;11033;47.490;11.116;2023-02-02T07:11:03;93670.91;;;3.04;75.23
21742;BME280;11033;47.490;11.116;2023-02-02T07:13:29;93673.38;;;3.05;74.81
21742;BME280;11033;47.490;11.116;2023-02-02T07:15:54;93690.59;;;2.97;75.96
21742;BME280;11033;47.490;11.116;2023-02-02T07:18:21;93690.97;;;2.92;76.27
21742;BME280;11033;47.490;11.116;2023-02-02T07:20:46;93698.53;;;2.95;76.90
21742;BME280;11033;47.490;11.116;2023-02-02T07:23:11;93706.84;;;2.89;76.56
21742;BME280;11033;47.490;11.116;2023-02-02T07:25:37;93697.41;;;2.88;77.45
21742;BME280;11033;47.490;11.116;2023-02-02T07:28:02;93706.47;;;2.94;76.24
21742;BME280;11033;47.490;11.116;2023-02-02T07:30:27;93700.53;;;2.82;78.45
21742;BME280;11033;47.490;11.116;2023-02-02T07:32:53;93715.56;;;2.78;77.79
21742;BME280;11033;47.490;11.116;2023-02-02T07:35:19;93705.72;;;2.82;77.58
21742;BME280;11033;47.490;11.116;2023-02-02T07:37:44;93715.44;;;2.80;78.42
21742;BME280;11033;47.490;11.116;2023-02-02T07:40:14;93711.06;;;2.80;78.23
21742;BME280;11033;47.490;11.116;2023-02-02T07:42:39;93704.47;;;2.76;78.58
21742;BME280;11033;47.490;11.116;2023-02-02T07:45:05;93707.72;;;2.69;79.06
21742;BME280;11033;47.490;11.116;2023-02-02T07:47:30;93708.53;;;2.69;78.97
21742;BME280;11033;47.490;11.116;2023-02-02T07:49:55;93704.41;;;2.67;79.62
21742;BME280;11033;47.490;11.116;2023-02-02T07:52:20;93707.47;;;2.72;78.88
21742;BME280;11033;47.490;11.116;2023-02-02T07:54:46;93695.66;;;2.68;78.88
21742;BME280;11033;47.490;11.116;2023-02-02T07:57:11;93689.94;;;2.74;79.32
21742;BME280;11033;47.490;11.116;2023-02-02T07:59:37;93702.91;;;2.64;80.04
21742;BME280;11033;47.490;11.116;2023-02-02T08:02:02;93694.84;;;2.67;79.23
21742;BME280;11033;47.490;11.116;2023-02-02T08:04:28;93686.09;;;2.68;78.60
21742;BME280;11033;47.490;11.116;2023-02-02T08:06:53;93700.56;;;2.61;80.33
21742;BME280;11033;47.490;11.116;2023-02-02T08:09:18;93694.00;;;2.67;79.50
21742;BME280;11033;47.490;11.116;2023-02-02T08:11:43;93678.53;;;2.65;78.82
21742;BME280;11033;47.490;11.116;2023-02-02T08:14:09;93693.19;;;2.66;78.84
21742;BME280;11033;47.490;11.116;2023-02-02T08:16:35;93699.22;;;2.67;78.77
21742;BME280;11033;47.490;11.116;2023-02-02T08:19:01;93699.22;;;2.67;79.37
21742;BME280;11033;47.490;11.116;2023-02-02T08:21:26;93696.22;;;2.71;79.19
21742;BME280;11033;47.490;11.116;2023-02-02T08:23:52;93700.91;;;2.77;77.83
21742;BME280;11033;47.490;11.116;2023-02-02T08:26:19;93698.97;;;2.70;78.51
21742;BME280;11033;47.490;11.116;2023-02-02T08:28:46;93694.44;;;2.72;78.30
21742;BME280;11033;47.490;11.116;2023-02-02T08:31:16;93703.63;;;2.76;77.86
21742;BME280;11033;47.490;11.116;2023-02-02T08:33:42;93704.47;;;2.76;78.14
21742;BME280;11033;47.490;11.116;2023-02-02T08:36:11;93707.38;;;2.83;78.04
21742;BME280;11033;47.490;11.116;2023-02-02T08:38:37;93712.44;;;2.84;78.31
21742;BME280;11033;47.490;11.116;2023-02-02T08:41:05;93729.13;;;2.82;77.90
21742;BME280;11033;47.490;11.116;2023-02-02T08:43:31;93724.88;;;2.81;78.27
21742;BME280;11033;47.490;11.116;2023-02-02T08:45:56;93738.19;;;2.88;77.72
21742;BME280;11033;47.490;11.116;2023-02-02T08:48:21;93743.09;;;2.81;79.12
21742;BME280;11033;47.490;11.116;2023-02-02T08:50:53;93743.91;;;2.81;79.29
21742;BME280;11033;47.490;11.116;2023-02-02T08:53:18;93749.44;;;2.88;78.43
21742;BME280;11033;47.490;11.116;2023-02-02T08:55:44;93745.03;;;2.89;79.31
21742;BME280;11033;47.490;11.116;2023-02-02T08:58:09;93745.88;;;2.89;79.78
21742;BME280;11033;47.490;11.116;2023-02-02T09:00:34;93753.69;;;2.89;79.98
21742;BME280;11033;47.490;11.116;2023-02-02T09:02:59;93757.41;;;2.96;79.22
21742;BME280;11033;47.490;11.116;2023-02-02T09:05:24;93765.84;;;2.89;80.70
21742;BME280;11033;47.490;11.116;2023-02-02T09:07:50;93767.50;;;2.90;80.17
21742;BME280;11033;47.490;11.116;2023-02-02T09:10:15;93776.06;;;3.01;79.56
21742;BME280;11033;47.490;11.116;2023-02-02T09:12:40;93770.66;;;2.93;80.19
21742;BME280;11033;47.490;11.116;2023-02-02T09:15:06;93773.84;;;2.97;80.70
21742;BME280;11033;47.490;11.116;2023-02-02T09:17:31;93775.22;;;3.01;79.81
21742;BME280;11033;47.490;11.116;2023-02-02T09:19:56;93780.56;;;2.99;80.49
21742;BME280;11033;47.490;11.116;2023-02-02T09:22:21;93776.00;;;2.92;81.01
21742;BME280;11033;47.490;11.116;2023-02-02T09:24:46;93776.81;;;2.92;81.39
21742;BME280;11033;47.490;11.116;2023-02-02T09:27:12;93778.91;;;2.98;80.88
21742;BME280;11033;47.490;11.116;2023-02-02T09:29:37;93778.47;;;2.93;81.85
21742;BME280;11033;47.490;11.116;2023-02-02T09:32:02;93783.41;;;2.96;81.39
21742;BME280;11033;47.490;11.116;2023-02-02T09:34:27;93777.69;;;3.02;80.63
21742;BME280;11033;47.490;11.116;2023-02-02T09:36:53;93775.53;;;3.07;81.07
21742;BME280;11033;47.490;11.116;2023-02-02T09:39:18;93772.50;;;3.02;81.24
21742;BME280;11033;47.490;11.116;2023-02-02T09:47:04;93790.31;;;3.07;80.24
21742;BME280;11033;47.490;11.116;2023-02-02T09:51:58;93798.19;;;3.16;80.44
21742;BME280;11033;47.490;11.116;2023-02-02T09:54:27;93799.69;;;3.19;79.38
21742;BME280;11033;47.490;11.116;2023-02-02T09:56:57;93802.81;;;3.13;79.75
21742;BME280;11033;47.490;11.116;2023-02-02T09:59:25;93795.84;;;3.13;79.92
21742;BME280;11033;47.490;11.116;2023-02-02T10:01:55;93793.06;;;3.26;79.32
21742;BME280;11033;47.490;11.116;2023-02-02T10:04:24;93786.94;;;3.37;78.43
21742;BME280;11033;47.490;11.116;2023-02-02T10:06:51;93802.03;;;3.43;78.56
21742;BME280;11033;47.490;11.116;2023-02-02T10:14:36;93790.22;;;3.39;76.60
21742;BME280;11033;47.490;11.116;2023-02-02T10:17:12;93794.34;;;3.41;76.86
21742;BME280;11033;47.490;11.116;2023-02-02T10:19:42;93791.34;;;3.46;75.82
21742;BME280;11033;47.490;11.116;2023-02-02T10:22:10;93793.28;;;3.54;75.91
21742;BME280;11033;47.490;11.116;2023-02-02T10:24:37;93778.38;;;3.65;76.64
21742;BME280;11033;47.490;11.116;2023-02-02T10:27:04;93784.56;;;3.64;75.36
21742;BME280;11033;47.490;11.116;2023-02-02T10:32:13;93787.19;;;3.74;75.30
21742;BME280;11033;47.490;11.116;2023-02-02T10:34:41;93788.69;;;3.76;74.83
21742;BME280;11033;47.490;11.116;2023-02-02T10:37:29;93798.59;;;3.82;75.24
21742;BME280;11033;47.490;11.116;2023-02-02T10:40:02;93795.56;;;3.77;73.56
21742;BME280;11033;47.490;11.116;2023-02-02T10:45:32;93806.50;;;3.71;74.57
21742;BME280;11033;47.490;11.116;2023-02-02T10:47:59;93804.31;;;3.67;73.68
21742;BME280;11033;47.490;11.116;2023-02-02T10:50:24;93808.84;;;3.74;74.14
21742;BME280;11033;47.490;11.116;2023-02-02T10:52:52;93815.00;;;3.73;72.88
21742;BME280;11033;47.490;11.116;2023-02-02T11:02:43;93809.34;;;3.99;71.62
21742;BME280;11033;47.490;11.116;2023-02-02T11:05:12;93804.69;;;4.02;70.61
21742;BME280;11033;47.490;11.116;2023-02-02T11:07:56;93824.84;;;4.00;71.66
21742;BME280;11033;47.490;11.116;2023-02-02T11:10:21;93815.22;;;3.91;71.84
21742;BME280;11033;47.490;11.116;2023-02-02T11:12:46;93828.81;;;3.95;72.51
21742;BME280;11033;47.490;11.116;2023-02-02T11:15:27;93830.41;;;3.86;72.65
21742;BME280;11033;47.490;11.116;2023-02-02T11:17:52;93833.16;;;3.85;72.40
21742;BME280;11033;47.490;11.116;2023-02-02T11:20:31;93831.84;;;4.00;72.76
21742;BME280;11033;47.490;11.116;2023-02-02T11:23:00;93826.91;;;3.97;73.02
21742;BME280;11033;47.490;11.116;2023-02-02T11:25:35;93822.81;;;4.04;72.80
21742;BME280;11033;47.490;11.116;2023-02-02T11:28:20;93821.69;;;3.97;74.10
21742;BME280;11033;47.490;11.116;2023-02-02T11:30:48;93828.28;;;4.01;73.33
21742;BME280;11033;47.490;11.116;2023-02-02T11:36:01;93837.66;;;3.82;75.10
21742;BME280;11033;47.490;11.116;2023-02-02T11:38:27;93834.97;;;3.94;74.49
21742;BME280;11033;47.490;11.116;2023-02-02T11:40:59;93818.34;;;3.85;76.26
21742;BME280;11033;47.490;11.116;2023-02-02T11:43:32;93837.53;;;3.84;76.39
21742;BME280;11033;47.490;11.116;2023-02-02T11:46:03;93835.06;;;3.82;76.34
21742;BME280;11033;47.490;11.116;2023-02-02T11:48:30;93827.59;;;3.99;76.85
21742;BME280;11033;47.490;11.116;2023-02-02T11:50:57;93824.31;;;3.66;76.90
21742;BME280;11033;47.490;11.116;2023-02-02T11:53:32;93815.31;;;3.80;77.10
21742;BME280;11033;47.490;11.116;2023-02-02T11:56:01;93811.72;;;3.71;77.67
21742;BME280;11033;47.490;11.116;2023-02-02T11:58:49;93813.00;;;3.87;77.77
21742;BME280;11033;47.490;11.116;2023-02-02T12:01:35;93815.31;;;3.90;77.10
21742;BME280;11033;47.490;11.116;2023-02-02T12:04:00;93814.75;;;3.76;78.39
21742;BME280;11033;47.490;11.116;2023-02-02T12:06:28;93810.34;;;3.67;78.07
21742;BME280;11033;47.490;11.116;2023-02-02T12:08:58;93818.16;;;3.67;77.44
21742;BME280;11033;47.490;11.116;2023-02-02T12:14:03;93812.66;;;3.61;78.00
21742;BME280;11033;47.490;11.116;2023-02-02T12:16:43;93809.28;;;3.79;77.58
21742;BME280;11033;47.490;11.116;2023-02-02T12:24:30;93806.75;;;3.59;77.95
21742;BME280;11033;47.490;11.116;2023-02-02T12:26:59;93805.38;;;3.64;77.60
21742;BME280;11033;47.490;11.116;2023-02-02T12:37:02;93785.06;;;3.48;77.92
21742;BME280;11033;47.490;11.116;2023-02-02T12:44:53;93804.19;;;3.38;78.46
21742;BME280;11033;47.490;11.116;2023-02-02T12:47:30;93797.50;;;3.45;78.36
21742;BME280;11033;47.490;11.116;2023-02-02T12:52:46;93805.19;;;3.46;78.16
21742;BME280;11033;47.490;11.116;2023-02-02T12:55:38;93826.94;;;3.36;78.48
21742;BME280;11033;47.490;11.116;2023-02-02T13:11:12;93815.41;;;3.29;79.65
21742;BME280;11033;47.490;11.116;2023-02-02T13:14:45;93819.13;;;3.36;79.46
21742;BME280;11033;47.490;11.116;2023-02-02T13:16:46;93827.19;;;3.33;79.19
21742;BME280;11033;47.490;11.116;2023-02-02T13:19:14;93828.88;;;3.43;79.60
21742;BME280;11033;47.490;11.116;2023-02-02T13:21:44;93826.16;;;3.45;78.22
21742;BME280;11033;47.490;11.116;2023-02-02T13:24:11;93819.81;;;3.38;79.71
21742;BME280;11033;47.490;11.116;2023-02-02T13:26:39;93832.31;;;3.44;79.12
21742;BME280;11033;47.490;11.116;2023-02-02T13:36:43;93822.50;;;3.27;80.58
21742;BME280;11033;47.490;11.116;2023-02-02T13:39:19;93832.66;;;3.30;81.64
21742;BME280;11033;47.490;11.116;2023-02-02T13:41:45;93836.66;;;3.34;80.52
21742;BME280;11033;47.490;11.116;2023-02-02T13:44:54;93839.69;;;3.39;80.25
21742;BME280;11033;47.490;11.116;2023-02-02T13:47:02;93843.50;;;3.35;79.86
21742;BME280;11033;47.490;11.116;2023-02-02T13:49:32;93847.50;;;3.39;79.91
21742;BME280;11033;47.490;11.116;2023-02-02T14:00:12;93861.84;;;3.12;80.85
21742;BME280;11033;47.490;11.116;2023-02-02T14:05:05;93861.28;;;2.88;83.70
21742;BME280;11033;47.490;11.116;2023-02-02T14:07:41;93867.31;;;3.09;82.63
21742;BME280;11033;47.490;11.116;2023-02-02T14:10:19;93874.53;;;3.06;82.26
21742;BME280;11033;47.490;11.116;2023-02-02T14:12:45;93885.66;;;3.08;82.35
21742;BME280;11033;47.490;11.116;2023-02-02T14:15:11;93885.66;;;3.08;82.24
21742;BME280;11033;47.490;11.116;2023-02-02T14:20:03;93886.66;;;2.96;84.50
21742;BME280;11033;47.490;11.116;2023-02-02T14:22:37;93885.53;;;3.09;83.09
21742;BME280;11033;47.490;11.116;2023-02-02T14:25:03;93885.16;;;3.14;81.90
21742;BME280;11033;47.490;11.116;2023-02-02T14:27:55;93888.13;;;3.09;81.79
21742;BME280;11033;47.490;11.116;2023-02-02T14:30:22;93890.84;;;3.08;82.00
21742;BME280;11033;47.490;11.116;2023-02-02T14:32:47;93889.13;;;2.97;84.69
21742;BME280;11033;47.490;11.116;2023-02-02T14:45:30;93898.78;;;2.85;84.19
21742;BME280;11033;47.490;11.116;2023-02-02T14:47:57;93908.50;;;3.04;81.94
21742;BME280;11033;47.490;11.116;2023-02-02T14:52:58;93902.03;;;2.99;83.02
21742;BME280;11033;47.490;11.116;2023-02-02T14:55:24;93912.16;;;2.81;83.94
21742;BME280;11033;47.490;11.116;2023-02-02T14:57:57;93906.84;;;2.82;83.29